Time;durP1;ratioP1;P1;durP2;ratioP2;P2;SDS_P1;SDS_P2;PMS_P1;PMS_P2;Temp;Humidity;BMP_temperature;BMP_pressure;BME280_temperature;BME280_humidity;BME280_pressure;Samples;Min_cycle;Max_cycle;Signal;HPM_P1;HPM_P2
2023/06/11 00:01:55;;;;;;;8.02;6.68;;;;;;;20.64;62.96;100948.25;4995543;28;20030;-63
2023/06/11 00:04:25;;;;;;;8.57;7.43;;;;;;;20.63;62.93;100957.03;4996080;28;20033;-63
2023/06/11 00:06:56;;;;;;;9.60;7.00;;;;;;;20.65;63.04;100955.22;5000796;28;20542;-63
2023/06/11 00:09:24;;;;;;;9.77;7.43;;;;;;;20.71;62.56;100951.47;4998478;28;20048;-63
2023/06/11 00:11:49;;;;;;;10.15;7.78;;;;;;;20.80;62.38;100944.94;4998697;28;20088;-63
2023/06/11 00:14:15;;;;;;;11.50;7.50;;;;;;;20.80;62.28;100939.66;5013004;28;20161;-64
2023/06/11 00:16:41;;;;;;;9.75;7.20;;;;;;;20.76;62.42;100945.97;4999710;28;20127;-63
2023/06/11 00:19:06;;;;;;;7.57;6.78;;;;;;;20.70;62.72;100948.00;5011634;28;20061;-64
2023/06/11 00:21:32;;;;;;;8.77;7.07;;;;;;;20.65;62.76;100946.47;5000186;28;20083;-64
2023/06/11 00:23:58;;;;;;;9.30;7.68;;;;;;;20.59;62.93;100952.00;4981207;28;20116;-63
2023/06/11 00:26:25;;;;;;;11.88;8.48;;;;;;;20.51;63.46;100952.34;4999012;28;20046;-63
2023/06/11 00:28:51;;;;;;;8.57;7.68;;;;;;;20.44;63.81;100945.69;4987413;28;20045;-63
2023/06/11 00:31:16;;;;;;;13.02;8.40;;;;;;;20.40;63.89;100953.75;5000090;28;20029;-63
2023/06/11 00:33:42;;;;;;;10.93;9.18;;;;;;;20.37;63.88;100951.28;4998466;28;20146;-63
2023/06/11 00:36:07;;;;;;;10.02;8.85;;;;;;;20.33;63.99;100953.22;4998308;28;20065;-63
2023/06/11 00:38:33;;;;;;;10.38;9.20;;;;;;;20.29;64.13;100950.78;4995573;28;20565;-62
2023/06/11 00:40:58;;;;;;;11.32;9.32;;;;;;;20.26;64.34;100943.03;4997922;28;20038;-63
2023/06/11 00:43:24;;;;;;;11.98;8.48;;;;;;;20.25;64.43;100949.22;4995822;28;20125;-63
2023/06/11 00:45:52;;;;;;;10.07;8.98;;;;;;;20.21;64.58;100948.53;4998693;28;20149;-63
2023/06/11 00:48:21;;;;;;;10.10;8.38;;;;;;;20.16;64.87;100953.97;4996024;28;20034;-63
2023/06/11 00:50:51;;;;;;;8.57;7.60;;;;;;;20.12;64.88;100957.66;4999087;28;20038;-63
2023/06/11 00:53:18;;;;;;;8.43;7.60;;;;;;;20.09;65.19;100957.78;4997877;28;20066;-63
2023/06/11 00:55:47;;;;;;;8.98;8.07;;;;;;;20.10;65.65;100962.09;4999108;28;20084;-63
2023/06/11 00:58:15;;;;;;;10.20;8.30;;;;;;;20.11;65.84;100957.72;4997214;28;20038;-63
2023/06/11 01:00:49;;;;;;;9.98;8.68;;;;;;;20.12;65.99;100962.91;4996666;28;20026;-63
2023/06/11 01:03:18;;;;;;;9.90;8.90;;;;;;;20.08;65.79;100952.59;4996129;28;20057;-63
2023/06/11 01:06:01;;;;;;;11.20;7.57;;;;;;;20.05;65.78;100955.34;4993489;28;20042;-63
2023/06/11 01:08:30;;;;;;;9.13;7.93;;;;;;;20.02;65.72;100948.47;4996783;28;20076;-63
2023/06/11 01:11:02;;;;;;;10.07;8.18;;;;;;;20.00;66.06;100954.72;4998299;28;20046;-63
2023/06/11 01:13:28;;;;;;;11.73;7.97;;;;;;;19.95;66.09;100956.66;4996783;28;20096;-63
2023/06/11 01:16:01;;;;;;;9.38;7.25;;;;;;;19.91;66.43;100955.13;4997990;28;20053;-63
2023/06/11 01:18:32;;;;;;;7.53;6.68;;;;;;;19.87;66.46;100948.28;4981106;28;20044;-63
2023/06/11 01:21:09;;;;;;;8.68;7.50;;;;;;;19.83;66.68;100959.84;4994886;28;20088;-63
2023/06/11 01:23:40;;;;;;;7.90;7.05;;;;;;;19.77;66.67;100960.09;4993493;28;20049;-63
2023/06/11 01:26:48;;;;;;;10.18;8.48;;;;;;;19.73;67.20;100966.38;4997917;28;20128;-63
2023/06/11 01:29:15;;;;;;;9.18;8.00;;;;;;;19.71;67.25;100963.81;4955356;28;20058;-63
2023/06/11 01:31:42;;;;;;;10.70;8.65;;;;;;;19.68;67.28;100963.94;4990209;28;20034;-63
2023/06/11 01:34:08;;;;;;;9.75;7.40;;;;;;;19.66;67.43;100965.78;4995240;28;20040;-63
2023/06/11 01:36:36;;;;;;;11.23;7.50;;;;;;;19.61;67.57;100965.13;4994962;28;21168;-63
2023/06/11 01:39:05;;;;;;;8.32;7.25;;;;;;;19.58;67.41;100963.50;4994985;28;20038;-63
2023/06/11 01:41:31;;;;;;;9.68;7.63;;;;;;;19.57;67.27;100961.78;4994741;28;20042;-64
2023/06/11 01:43:56;;;;;;;8.18;7.00;;;;;;;19.54;67.38;100961.03;4995105;28;20391;-63
2023/06/11 01:46:22;;;;;;;8.68;7.15;;;;;;;19.53;67.36;100961.97;4997566;28;20026;-63
2023/06/11 01:48:47;;;;;;;8.25;6.78;;;;;;;19.51;67.29;100958.56;4980581;28;20051;-63
2023/06/11 01:51:14;;;;;;;9.02;7.00;;;;;;;19.48;67.46;100961.31;4996730;28;20614;-63
2023/06/11 01:53:42;;;;;;;9.82;6.93;;;;;;;19.46;67.47;100966.63;4999046;28;20808;-63
2023/06/11 01:56:07;;;;;;;8.35;6.90;;;;;;;19.43;67.63;100958.88;4997643;28;20034;-63
2023/06/11 01:58:33;;;;;;;9.57;7.43;;;;;;;19.41;67.72;100963.31;4996284;28;20135;-63
2023/06/11 02:00:59;;;;;;;7.32;6.25;;;;;;;19.40;67.67;100968.63;4994379;28;20148;-63
2023/06/11 02:03:25;;;;;;;8.48;7.35;;;;;;;19.35;67.96;100978.47;4998672;28;20046;-63
2023/06/11 02:05:51;;;;;;;7.60;6.90;;;;;;;19.33;68.13;100981.13;4999402;28;20042;-63
2023/06/11 02:08:16;;;;;;;8.60;7.28;;;;;;;19.28;68.04;100972.63;5000218;28;20232;-64
2023/06/11 02:10:42;;;;;;;8.13;6.97;;;;;;;19.27;67.99;100975.28;5000518;28;20038;-63
2023/06/11 02:13:08;;;;;;;8.52;6.75;;;;;;;19.25;68.25;100977.13;5001712;28;20045;-64
2023/06/11 02:15:33;;;;;;;7.93;7.13;;;;;;;19.23;68.48;100984.22;5001780;28;20029;-63
2023/06/11 02:17:59;;;;;;;10.88;8.25;;;;;;;19.24;68.83;100984.13;4980553;28;20191;-63
2023/06/11 02:20:24;;;;;;;10.38;7.80;;;;;;;19.23;68.85;100984.22;4996537;28;20053;-64
2023/06/11 02:22:49;;;;;;;10.90;7.70;;;;;;;19.22;68.97;100979.88;5002356;28;20112;-63
2023/06/11 02:25:15;;;;;;;9.10;7.25;;;;;;;19.19;69.02;100985.25;5001530;28;20045;-63
2023/06/11 02:27:40;;;;;;;9.27;7.40;;;;;;;19.16;68.99;100977.50;4999819;28;20030;-63
2023/06/11 02:30:06;;;;;;;10.05;7.40;;;;;;;19.16;68.74;100972.25;5000046;28;20061;-63
2023/06/11 02:32:31;;;;;;;8.35;7.25;;;;;;;19.13;68.81;100975.00;4997933;28;20045;-64
2023/06/11 02:34:57;;;;;;;8.43;7.22;;;;;;;19.10;68.86;100975.97;4996491;28;20038;-63
2023/06/11 02:37:22;;;;;;;10.93;7.68;;;;;;;19.07;69.03;100976.97;4997146;28;20418;-63
2023/06/11 02:39:47;;;;;;;9.68;7.65;;;;;;;19.05;69.00;100970.09;4995849;28;20049;-63
2023/06/11 02:42:13;;;;;;;10.15;7.30;;;;;;;19.03;69.23;100975.38;4999241;28;20038;-63
2023/06/11 02:44:39;;;;;;;10.32;8.13;;;;;;;19.03;69.38;100975.38;4999535;28;20723;-63
2023/06/11 02:47:04;;;;;;;9.00;7.10;;;;;;;19.03;69.35;100977.13;4995978;28;20322;-63
2023/06/11 02:49:30;;;;;;;11.90;7.68;;;;;;;19.02;69.43;100976.31;4996431;28;20042;-63
2023/06/11 02:51:55;;;;;;;10.85;7.30;;;;;;;19.01;69.73;100985.06;5001343;28;20092;-63
2023/06/11 02:54:20;;;;;;;10.82;8.05;;;;;;;19.02;69.94;100981.53;5000034;28;20058;-63
2023/06/11 02:56:46;;;;;;;9.20;7.20;;;;;;;19.02;69.94;100984.16;4987042;28;20037;-63
2023/06/11 02:59:11;;;;;;;8.20;7.40;;;;;;;19.03;70.01;100985.84;5000038;28;20597;-63
2023/06/11 03:01:38;;;;;;;9.68;7.78;;;;;;;19.03;69.86;100980.59;4996206;28;20116;-63
2023/06/11 03:04:04;;;;;;;13.52;7.75;;;;;;;19.00;70.03;100992.97;4998461;28;20042;-63
2023/06/11 03:06:29;;;;;;;7.78;7.03;;;;;;;18.96;69.99;100994.88;4996869;28;20657;-63
2023/06/11 03:08:55;;;;;;;8.05;6.95;;;;;;;18.95;70.19;100998.41;4994985;28;20137;-63
2023/06/11 03:11:20;;;;;;;9.23;6.68;;;;;;;18.90;70.17;100997.75;4997129;28;20784;-63
2023/06/11 03:13:45;;;;;;;7.70;6.78;;;;;;;18.90;70.06;100996.88;4995764;28;20475;-64
2023/06/11 03:16:11;;;;;;;10.40;7.78;;;;;;;18.88;69.98;100996.06;4997956;28;20034;-64
2023/06/11 03:18:36;;;;;;;7.75;6.93;;;;;;;18.85;70.19;100996.22;4995850;28;20128;-63
2023/06/11 03:21:02;;;;;;;8.45;6.93;;;;;;;18.83;70.50;101000.59;4999204;28;20061;-63
2023/06/11 03:23:27;;;;;;;8.10;7.30;;;;;;;18.83;70.29;100993.59;5001176;28;20037;-63
2023/06/11 03:25:52;;;;;;;9.35;8.35;;;;;;;18.82;70.31;100996.28;5001146;28;20145;-66
2023/06/11 03:28:18;;;;;;;8.05;6.65;;;;;;;18.83;70.35;100998.84;4998529;28;20659;-65
2023/06/11 03:30:43;;;;;;;8.40;7.47;;;;;;;18.81;70.46;100997.19;4998210;28;20061;-66
2023/06/11 03:33:09;;;;;;;12.43;8.13;;;;;;;18.79;70.57;100997.25;4981412;28;20038;-66
2023/06/11 03:35:34;;;;;;;11.10;6.93;;;;;;;18.79;70.63;101001.66;4997848;28;20121;-66
2023/06/11 03:38:00;;;;;;;8.68;7.13;;;;;;;18.80;70.71;100998.97;4991393;28;20045;-66
2023/06/11 03:40:25;;;;;;;7.90;7.00;;;;;;;18.82;70.51;100999.75;4997177;28;20091;-66
2023/06/11 03:42:50;;;;;;;8.60;7.70;;;;;;;18.86;70.58;101003.13;4997059;28;20045;-66
2023/06/11 03:45:16;;;;;;;8.65;7.75;;;;;;;18.87;70.59;101007.47;4998001;28;20033;-66
2023/06/11 03:47:41;;;;;;;8.55;7.22;;;;;;;18.89;70.63;100996.03;4997243;28;20127;-66
2023/06/11 03:50:07;;;;;;;10.60;7.22;;;;;;;18.96;70.02;100997.50;4999514;28;20085;-66
2023/06/11 03:52:32;;;;;;;8.73;7.50;;;;;;;19.01;70.41;100992.91;5002770;28;20159;-66
2023/06/11 03:54:58;;;;;;;9.02;8.02;;;;;;;19.08;70.10;100988.28;5004521;28;20625;-66
2023/06/11 03:57:23;;;;;;;9.75;7.43;;;;;;;19.17;69.72;100993.19;5003541;28;20045;-66
2023/06/11 03:59:48;;;;;;;11.20;7.57;;;;;;;19.23;69.41;100990.31;5000762;28;20140;-66
2023/06/11 04:02:14;;;;;;;8.85;7.55;;;;;;;19.29;69.46;101002.31;5001756;28;20357;-66
2023/06/11 04:04:39;;;;;;;10.43;7.47;;;;;;;19.32;69.46;101004.81;5001690;28;20093;-66
2023/06/11 04:07:05;;;;;;;9.43;6.95;;;;;;;19.38;69.22;100999.31;5020024;23;20053;-67
2023/06/11 04:09:31;;;;;;;7.15;6.45;;;;;;;19.43;68.94;100997.34;5007583;28;20510;-66
2023/06/11 04:11:56;;;;;;;9.07;7.40;;;;;;;19.48;68.98;100996.25;5032969;28;20100;-66
2023/06/11 04:14:23;;;;;;;10.48;7.50;;;;;;;19.55;68.60;100994.22;5042003;28;20041;-66
2023/06/11 04:16:48;;;;;;;7.47;6.78;;;;;;;19.60;68.90;101000.13;5041105;28;20040;-66
2023/06/11 04:19:14;;;;;;;7.13;6.40;;;;;;;19.63;68.76;101006.09;5036538;28;20029;-66
2023/06/11 04:21:39;;;;;;;9.90;8.32;;;;;;;19.70;68.42;100996.22;5039736;28;20028;-66
2023/06/11 04:24:05;;;;;;;9.25;7.72;;;;;;;19.79;67.94;100990.59;5040732;28;20037;-66
2023/06/11 04:26:31;;;;;;;9.40;7.50;;;;;;;19.86;67.68;100988.59;5043973;28;20118;-63
2023/06/11 04:28:57;;;;;;;9.68;6.82;;;;;;;19.90;67.71;100990.13;5039696;28;20095;-63
2023/06/11 04:31:26;;;;;;;9.05;7.50;;;;;;;19.93;67.62;100988.25;5039064;28;20478;-64
2023/06/11 04:33:55;;;;;;;8.15;7.35;;;;;;;20.00;67.21;100991.47;5038235;28;20025;-63
2023/06/11 04:36:24;;;;;;;10.63;7.25;;;;;;;20.05;67.68;100994.72;5033502;28;20474;-63
2023/06/11 04:38:51;;;;;;;7.47;6.65;;;;;;;20.13;67.59;100992.59;5034547;28;20044;-63
2023/06/11 04:41:17;;;;;;;7.93;6.63;;;;;;;20.20;67.37;100995.81;5037168;28;20041;-64
2023/06/11 04:43:44;;;;;;;7.72;7.03;;;;;;;20.29;66.55;100983.16;5038999;28;20040;-64
2023/06/11 04:46:10;;;;;;;10.98;7.75;;;;;;;20.42;65.96;100967.69;5021160;28;20025;-64
2023/06/11 04:48:37;;;;;;;11.02;7.28;;;;;;;20.51;65.77;100978.59;5036442;28;20923;-63
2023/06/11 04:51:04;;;;;;;7.55;6.75;;;;;;;20.58;65.58;100966.91;5035179;28;20047;-63
2023/06/11 04:53:31;;;;;;;10.98;7.70;;;;;;;20.62;65.39;100973.75;5036773;28;20033;-63
2023/06/11 04:55:58;;;;;;;11.25;7.40;;;;;;;20.67;65.19;100970.88;5018779;28;20029;-63
2023/06/11 04:58:30;;;;;;;9.60;7.15;;;;;;;20.72;64.67;100977.66;5036318;28;20083;-63
2023/06/11 05:00:56;;;;;;;7.57;6.80;;;;;;;20.75;64.69;100960.88;5029721;28;20029;-63
2023/06/11 05:03:26;;;;;;;10.10;7.50;;;;;;;20.80;64.72;100968.56;5033246;28;20041;-63
2023/06/11 05:05:53;;;;;;;8.25;7.13;;;;;;;20.84;64.93;100985.91;5034167;28;20048;-63
2023/06/11 05:08:21;;;;;;;7.78;6.97;;;;;;;20.86;64.76;100973.53;5033772;28;20037;-63
2023/06/11 05:10:47;;;;;;;9.02;7.03;;;;;;;20.89;64.70;100968.13;5032456;28;20057;-63
2023/06/11 05:13:13;;;;;;;8.23;7.07;;;;;;;20.97;64.01;100966.84;5037929;28;20198;-63
2023/06/11 05:15:39;;;;;;;10.88;7.47;;;;;;;21.01;63.94;100962.31;5041940;28;20028;-63
2023/06/11 05:18:04;;;;;;;8.45;7.30;;;;;;;21.06;64.19;100973.44;5038889;28;20051;-63
2023/06/11 05:20:30;;;;;;;7.60;6.80;;;;;;;21.12;64.01;100974.00;5028893;28;20837;-63
2023/06/11 05:23:02;;;;;;;7.82;7.03;;;;;;;21.18;63.76;100976.31;5036714;28;20502;-63
2023/06/11 05:25:28;;;;;;;8.10;6.80;;;;;;;21.25;63.27;100971.63;5023815;28;20448;-63
2023/06/11 05:27:57;;;;;;;9.98;7.50;;;;;;;21.32;62.79;100959.00;5038624;28;20061;-63
2023/06/11 05:30:25;;;;;;;9.55;7.05;;;;;;;21.36;62.85;100976.34;5039834;28;20713;-63
2023/06/11 05:32:51;;;;;;;9.93;6.75;;;;;;;21.39;63.27;100973.56;5037038;28;20112;-64
2023/06/11 05:35:17;;;;;;;8.18;6.97;;;;;;;21.45;62.40;100971.50;5011394;28;20052;-63
2023/06/11 05:37:43;;;;;;;10.85;6.72;;;;;;;21.48;62.99;100987.13;5034207;28;20032;-63
2023/06/11 05:40:09;;;;;;;9.30;7.10;;;;;;;21.53;62.16;100973.72;5036778;28;20047;-66
2023/06/11 05:42:35;;;;;;;8.43;7.03;;;;;;;21.60;62.51;100983.06;5037884;28;20051;-66
2023/06/11 05:45:00;;;;;;;8.73;6.82;;;;;;;21.66;62.25;100974.84;5038549;28;20037;-66
2023/06/11 05:47:25;;;;;;;8.25;7.35;;;;;;;21.68;62.79;100984.38;5036843;28;20049;-66
2023/06/11 05:49:51;;;;;;;9.45;7.28;;;;;;;21.72;62.54;100980.66;5033018;28;20049;-65
2023/06/11 05:52:16;;;;;;;7.15;6.45;;;;;;;21.81;62.62;100981.97;5033149;28;20044;-65
2023/06/11 05:54:41;;;;;;;9.32;6.72;;;;;;;21.91;62.20;100985.81;5035336;28;20043;-66
2023/06/11 05:57:17;;;;;;;9.23;7.60;;;;;;;22.03;61.67;100974.66;5036095;28;20033;-66
2023/06/11 05:59:42;;;;;;;9.73;6.40;;;;;;;22.12;61.20;100968.91;5035544;28;20073;-65
2023/06/11 06:02:08;;;;;;;12.82;6.95;;;;;;;22.18;61.21;100967.72;5031796;28;20139;-63
2023/06/11 06:04:33;;;;;;;10.38;7.28;;;;;;;22.28;60.84;100982.13;5032824;28;20037;-62
2023/06/11 06:06:58;;;;;;;7.30;6.60;;;;;;;22.42;60.81;100979.63;5031923;28;21107;-62
2023/06/11 06:09:24;;;;;;;7.60;6.80;;;;;;;22.51;60.75;100970.38;5034074;28;20044;-62
2023/06/11 06:11:49;;;;;;;8.77;6.65;;;;;;;22.55;60.20;100978.03;5032311;28;20048;-63
2023/06/11 06:14:15;;;;;;;8.10;7.22;;;;;;;22.61;60.34;100975.06;5034813;28;20764;-63
2023/06/11 06:16:40;;;;;;;7.57;6.88;;;;;;;22.72;60.35;100977.09;5035862;28;20732;-63
2023/06/11 06:19:05;;;;;;;8.35;7.03;;;;;;;22.77;60.03;100978.53;5034070;28;20044;-63
2023/06/11 06:21:31;;;;;;;8.55;6.88;;;;;;;22.92;59.28;100967.16;5025876;28;20033;-63
2023/06/11 06:23:56;;;;;;;9.85;6.82;;;;;;;23.01;58.86;100960.50;5031876;28;20049;-63
2023/06/11 06:26:23;;;;;;;10.43;7.18;;;;;;;23.11;58.75;100961.69;5035659;28;20055;-62
2023/06/11 06:28:48;;;;;;;8.55;7.28;;;;;;;23.19;58.39;100956.84;5035920;28;20071;-63
2023/06/11 06:31:14;;;;;;;8.73;6.70;;;;;;;23.26;58.46;100970.56;5035136;28;20545;-63
2023/06/11 06:33:39;;;;;;;7.28;6.57;;;;;;;23.29;59.13;100986.19;5030882;28;20039;-63
2023/06/11 06:36:05;;;;;;;10.02;6.65;;;;;;;23.45;58.29;100971.19;5025619;28;20045;-63
2023/06/11 06:38:32;;;;;;;10.20;7.15;;;;;;;23.51;58.05;100968.22;5020982;28;20041;-63
2023/06/11 06:40:57;;;;;;;7.85;7.05;;;;;;;23.51;57.85;100962.94;5024909;28;20681;-63
2023/06/11 06:43:22;;;;;;;7.88;6.55;;;;;;;23.55;57.84;100968.84;5021267;28;20033;-63
2023/06/11 06:45:48;;;;;;;8.32;6.40;;;;;;;23.60;57.81;100972.91;4988766;28;20174;-63
2023/06/11 06:48:13;;;;;;;7.57;6.43;;;;;;;23.68;57.73;100968.06;5025109;28;20131;-63
2023/06/11 06:50:38;;;;;;;7.20;6.50;;;;;;;23.77;57.34;100966.66;5034185;28;20144;-62
2023/06/11 06:53:04;;;;;;;9.05;6.82;;;;;;;23.87;56.91;100955.44;5035418;28;20033;-62
2023/06/11 06:55:30;;;;;;;9.55;5.95;;;;;;;23.96;57.19;100969.91;5036308;28;20037;-63
2023/06/11 06:57:55;;;;;;;8.50;6.53;;;;;;;24.05;56.63;100960.56;5036254;28;20029;-63
2023/06/11 07:00:20;;;;;;;7.75;6.97;;;;;;;24.06;56.62;100960.50;5036109;28;20048;-62
2023/06/11 07:02:46;;;;;;;8.15;6.68;;;;;;;24.11;55.75;100953.13;5030813;28;20115;-62
2023/06/11 07:05:12;;;;;;;8.50;6.45;;;;;;;24.18;56.08;100962.38;5034146;28;20144;-63
2023/06/11 07:07:38;;;;;;;8.65;6.38;;;;;;;24.32;55.49;100953.59;5033017;28;20056;-63
2023/06/11 07:10:03;;;;;;;7.95;6.88;;;;;;;24.41;55.54;100960.94;5036780;28;20032;-62
2023/06/11 07:12:28;;;;;;;6.53;5.63;;;;;;;24.43;54.64;100954.63;5036677;28;20036;-63
2023/06/11 07:14:54;;;;;;;8.57;6.43;;;;;;;24.54;55.43;100967.19;5020395;28;20048;-63
2023/06/11 07:17:21;;;;;;;7.45;6.32;;;;;;;24.65;54.88;100963.84;5035842;28;20523;-63
2023/06/11 07:19:46;;;;;;;7.30;6.05;;;;;;;24.70;55.47;100978.50;5029979;28;20057;-63
2023/06/11 07:22:12;;;;;;;7.15;6.18;;;;;;;24.73;54.58;100973.03;5039900;28;20534;-63
2023/06/11 07:24:39;;;;;;;8.00;5.95;;;;;;;24.81;54.33;100962.81;5039893;28;20101;-63
2023/06/11 07:27:05;;;;;;;6.70;6.00;;;;;;;24.89;54.43;100962.31;5044774;28;20039;-63
2023/06/11 07:29:30;;;;;;;7.90;5.85;;;;;;;25.01;52.90;100946.50;5041742;28;20033;-63
2023/06/11 07:31:56;;;;;;;8.00;6.10;;;;;;;25.12;53.13;100952.88;5035156;28;20502;-63
2023/06/11 07:34:21;;;;;;;6.78;6.07;;;;;;;25.15;53.26;100966.75;5033853;28;20105;-63
2023/06/11 07:36:46;;;;;;;7.15;5.95;;;;;;;25.29;53.44;100963.22;5015480;28;20199;-62
2023/06/11 07:39:12;;;;;;;6.03;5.43;;;;;;;25.36;52.62;100957.41;5011690;28;20037;-63
2023/06/11 07:41:37;;;;;;;7.82;5.68;;;;;;;25.40;51.95;100943.06;5030651;28;20482;-63
2023/06/11 07:44:02;;;;;;;7.18;5.93;;;;;;;25.46;52.00;100945.31;5033609;28;20044;-63
2023/06/11 07:46:28;;;;;;;6.13;5.57;;;;;;;25.53;51.92;100943.09;5037001;28;20038;-63
2023/06/11 07:48:53;;;;;;;6.88;5.75;;;;;;;25.54;52.33;100950.91;5036846;28;20044;-63
2023/06/11 07:51:20;;;;;;;7.35;5.80;;;;;;;25.57;51.23;100934.84;5033242;28;20822;-62
2023/06/11 07:53:46;;;;;;;7.65;5.72;;;;;;;25.59;50.78;100935.56;5031971;28;20037;-63
2023/06/11 07:56:11;;;;;;;8.63;6.25;;;;;;;25.65;50.70;100930.81;5039487;28;20119;-63
2023/06/11 07:58:37;;;;;;;7.47;5.95;;;;;;;25.76;51.74;100950.31;5039050;28;20458;-62
2023/06/11 08:01:02;;;;;;;6.68;5.35;;;;;;;25.82;51.10;100936.66;5036316;28;20040;-63
2023/06/11 08:03:28;;;;;;;6.95;5.60;;;;;;;25.93;49.73;100930.63;5036256;28;20037;-63
2023/06/11 08:05:53;;;;;;;6.85;5.45;;;;;;;25.98;49.07;100918.72;5030151;28;20033;-63
2023/06/11 08:08:18;;;;;;;7.65;5.68;;;;;;;26.08;49.30;100932.19;5031207;28;20052;-62
2023/06/11 08:10:45;;;;;;;5.90;5.40;;;;;;;26.16;49.41;100932.53;5037828;28;20068;-62
2023/06/11 08:13:11;;;;;;;9.50;5.72;;;;;;;26.20;50.04;100952.56;5037797;28;20609;-63
2023/06/11 08:15:37;;;;;;;5.88;4.97;;;;;;;26.23;49.06;100925.84;5035188;28;20024;-63
2023/06/11 08:18:02;;;;;;;6.90;5.55;;;;;;;26.30;48.10;100911.22;5037895;28;20047;-63
2023/06/11 08:20:28;;;;;;;7.15;6.07;;;;;;;26.42;48.96;100933.34;5032209;28;20037;-63
2023/06/11 08:22:53;;;;;;;6.57;5.68;;;;;;;26.45;49.09;100935.78;5032323;28;20124;-63
2023/06/11 08:25:19;;;;;;;5.82;5.32;;;;;;;26.48;49.27;100928.44;5036821;28;20689;-63
2023/06/11 08:27:44;;;;;;;6.38;5.78;;;;;;;26.54;49.51;100937.78;5035382;28;20443;-63
2023/06/11 08:30:10;;;;;;;6.03;5.43;;;;;;;26.54;48.63;100916.56;5041041;28;20774;-62
2023/06/11 08:32:35;;;;;;;6.20;5.60;;;;;;;26.60;48.82;100922.25;5035065;28;20044;-62
2023/06/11 08:35:01;;;;;;;7.20;5.00;;;;;;;26.64;48.39;100912.28;5036400;28;20037;-63
2023/06/11 08:37:26;;;;;;;5.78;5.18;;;;;;;26.71;47.85;100900.28;5033093;28;20108;-63
2023/06/11 08:39:52;;;;;;;7.38;5.53;;;;;;;26.85;47.96;100917.84;5033419;28;20063;-63
2023/06/11 08:42:17;;;;;;;6.90;5.50;;;;;;;26.80;48.58;100918.19;5017370;28;20040;-63
2023/06/11 08:44:42;;;;;;;6.07;5.47;;;;;;;26.85;47.90;100905.44;5035942;28;20160;-63
2023/06/11 08:47:10;;;;;;;6.63;5.13;;;;;;;26.96;47.61;100901.97;5037942;28;20044;-63
2023/06/11 08:49:43;;;;;;;5.63;5.13;;;;;;;27.14;47.49;100905.91;5030614;28;20045;-63
2023/06/11 08:52:10;;;;;;;5.28;4.63;;;;;;;27.28;45.96;100887.16;5035587;28;20033;-63
2023/06/11 08:54:35;;;;;;;5.72;5.18;;;;;;;27.35;46.43;100891.03;5036359;28;20049;-63
2023/06/11 08:57:01;;;;;;;6.50;5.20;;;;;;;27.50;45.84;100879.28;5017286;28;20033;-63
2023/06/11 08:59:27;;;;;;;4.60;4.20;;;;;;;27.65;45.07;100869.28;5037480;28;20048;-63
2023/06/11 09:01:52;;;;;;;5.20;4.70;;;;;;;27.64;44.14;100868.44;5036507;28;20049;-63
2023/06/11 09:04:23;;;;;;;5.32;4.60;;;;;;;27.71;43.54;100861.69;5035477;28;20091;-63
2023/06/11 09:06:56;;;;;;;5.93;4.85;;;;;;;27.80;43.71;100873.41;5035712;28;20075;-63
2023/06/11 09:09:22;;;;;;;7.57;4.90;;;;;;;27.86;43.26;100854.31;5034544;28;20056;-63
2023/06/11 09:11:49;;;;;;;5.40;4.55;;;;;;;27.92;43.33;100863.63;5037346;28;20225;-63
2023/06/11 09:14:15;;;;;;;6.22;4.68;;;;;;;27.97;43.06;100856.13;5033421;28;20041;-63
2023/06/11 09:16:45;;;;;;;4.72;4.10;;;;;;;28.04;43.34;100858.19;5029489;28;20159;-63
2023/06/11 09:19:18;;;;;;;5.45;4.47;;;;;;;28.08;41.97;100848.16;5034982;28;20034;-63
2023/06/11 09:21:57;;;;;;;5.22;4.20;;;;;;;28.16;42.45;100854.59;5037313;28;20452;-63
2023/06/11 09:24:23;;;;;;;7.50;4.18;;;;;;;28.27;42.21;100859.03;5039340;28;20078;-63
2023/06/11 09:26:53;;;;;;;4.93;3.88;;;;;;;28.35;40.71;100833.50;5034605;28;20084;-64
2023/06/11 09:29:18;;;;;;;4.57;4.18;;;;;;;28.46;39.95;100839.78;5037039;28;20037;-62
2023/06/11 09:31:43;;;;;;;4.40;4.00;;;;;;;28.58;40.53;100852.09;5038248;28;21182;-63
2023/06/11 09:34:12;;;;;;;5.75;4.47;;;;;;;28.66;40.91;100857.59;5038765;28;20028;-62
2023/06/11 09:36:37;;;;;;;5.40;3.90;;;;;;;28.69;40.64;100854.69;5032291;28;20041;-63
2023/06/11 09:39:03;;;;;;;4.30;3.90;;;;;;;28.81;38.62;100825.31;5032312;28;20510;-63
2023/06/11 09:41:29;;;;;;;4.40;4.00;;;;;;;28.89;38.19;100836.13;5021023;28;20126;-63
2023/06/11 09:43:56;;;;;;;5.82;4.45;;;;;;;29.00;38.39;100843.25;5037059;28;20111;-63
2023/06/11 09:46:22;;;;;;;4.93;3.88;;;;;;;28.96;38.02;100832.97;5038076;28;20032;-63
2023/06/11 09:48:48;;;;;;;5.10;3.85;;;;;;;29.08;38.22;100845.25;5030954;28;20041;-63
2023/06/11 09:51:15;;;;;;;9.10;4.05;;;;;;;29.21;37.19;100836.09;5027325;28;20079;-63
2023/06/11 09:53:41;;;;;;;6.07;3.90;;;;;;;29.32;37.32;100843.19;5028635;28;21870;-63
2023/06/11 09:56:07;;;;;;;6.05;4.45;;;;;;;29.34;37.10;100838.59;5025242;28;20033;-63
2023/06/11 09:58:33;;;;;;;6.53;3.90;;;;;;;29.35;37.28;100837.63;5037837;28;20033;-63
2023/06/11 10:01:00;;;;;;;7.55;3.90;;;;;;;29.32;36.80;100841.38;5037216;28;20960;-63
2023/06/11 10:03:30;;;;;;;7.10;4.32;;;;;;;29.42;37.18;100841.47;5032706;28;20060;-63
2023/06/11 10:05:56;;;;;;;7.63;4.20;;;;;;;29.54;37.01;100837.72;5037736;28;20041;-63
2023/06/11 10:08:30;;;;;;;6.20;4.50;;;;;;;29.60;36.90;100849.69;5031971;28;20787;-63
2023/06/11 10:11:00;;;;;;;5.72;4.60;;;;;;;29.60;35.44;100821.19;5023312;28;20041;-63
2023/06/11 10:13:30;;;;;;;5.68;4.45;;;;;;;29.69;36.89;100839.06;5024918;28;20087;-63
2023/06/11 10:15:58;;;;;;;6.22;4.53;;;;;;;29.77;36.11;100819.75;5026129;28;20060;-63
2023/06/11 10:18:25;;;;;;;5.63;4.80;;;;;;;29.82;35.47;100821.03;5027999;28;20048;-63
2023/06/11 10:20:52;;;;;;;5.13;4.13;;;;;;;29.96;34.85;100823.34;5025171;28;20140;-63
2023/06/11 10:23:18;;;;;;;6.88;4.30;;;;;;;29.93;34.44;100820.94;5023703;28;20037;-63
2023/06/11 10:25:53;;;;;;;7.63;4.53;;;;;;;30.04;35.59;100830.69;5023162;28;20138;-63
2023/06/11 10:28:19;;;;;;;6.35;4.68;;;;;;;30.04;35.37;100829.84;5036544;28;20037;-63
2023/06/11 10:30:54;;;;;;;10.07;4.50;;;;;;;30.09;35.14;100832.94;5018087;28;20041;-63
2023/06/11 10:33:21;;;;;;;6.13;4.80;;;;;;;30.25;35.14;100841.28;5031725;28;20095;-63
2023/06/11 10:35:46;;;;;;;6.93;4.38;;;;;;;30.34;33.20;100821.78;5033734;28;20064;-63
2023/06/11 10:38:13;;;;;;;7.43;4.32;;;;;;;30.32;33.58;100816.56;5035433;28;20160;-64
2023/06/11 10:40:40;;;;;;;5.40;4.78;;;;;;;30.27;32.04;100802.81;5028736;28;20041;-64
2023/06/11 10:43:16;;;;;;;6.30;4.50;;;;;;;30.43;32.50;100818.28;5036320;28;20508;-64
2023/06/11 10:45:42;;;;;;;7.50;4.53;;;;;;;30.54;32.05;100812.84;5027762;28;20042;-64
2023/06/11 10:48:07;;;;;;;6.30;4.53;;;;;;;30.58;31.35;100811.56;5031702;28;20048;-63
2023/06/11 10:50:33;;;;;;;5.72;4.78;;;;;;;30.58;32.98;100832.91;5034574;28;20686;-64
2023/06/11 10:53:07;;;;;;;8.68;5.13;;;;;;;30.56;33.26;100828.72;5030486;28;20449;-62
2023/06/11 10:55:34;;;;;;;;;;;;;;;30.70;32.33;100831.00;5034993;28;20055;-62
2023/06/11 10:58:01;;;;;;;6.22;4.50;;;;;;;30.86;33.55;100850.78;5037557;28;19935;-62
2023/06/11 11:00:32;;;;;;;6.90;4.57;;;;;;;30.91;31.63;100815.66;5046475;28;20047;-63
2023/06/11 11:02:57;;;;;;;4.70;4.20;;;;;;;31.01;31.99;100824.50;5039389;28;20060;-63
2023/06/11 11:05:25;;;;;;;7.70;4.82;;;;;;;31.01;33.19;100838.69;5036208;28;20132;-63
2023/06/11 11:07:53;;;;;;;6.70;4.78;;;;;;;30.95;32.54;100823.25;5032799;28;20571;-63
2023/06/11 11:10:23;;;;;;;5.90;4.63;;;;;;;30.79;31.94;100832.78;5033787;28;20131;-63
2023/06/11 11:12:49;;;;;;;4.95;4.47;;;;;;;31.07;33.18;100845.28;5019693;28;20260;-63
2023/06/11 11:15:15;;;;;;;6.95;4.65;;;;;;;30.78;32.28;100831.13;5038714;28;20111;-63
2023/06/11 11:17:42;;;;;;;6.28;4.43;;;;;;;30.98;32.67;100836.31;5018803;28;20092;-64
2023/06/11 11:20:09;;;;;;;6.95;4.80;;;;;;;30.66;32.30;100829.56;5034658;28;20041;-63
2023/06/11 11:22:36;;;;;;;7.45;4.57;;;;;;;30.62;32.25;100818.31;5041054;28;20031;-64